createdAt,value
2018-12-06T05:00:35.728Z,90.91
2018-12-06T05:01:35.558Z,90.29
2018-12-06T05:02:35.633Z,90.19
2018-12-06T05:03:35.456Z,89.56
2018-12-06T05:04:35.446Z,89.15
2018-12-06T05:05:35.429Z,88.53
2018-12-06T05:06:35.436Z,89.67
2018-12-06T05:07:35.425Z,89.46
2018-12-06T05:08:35.401Z,89.15
2018-12-06T05:09:35.407Z,89.15
2018-12-06T05:10:35.378Z,89.15
2018-12-06T05:11:35.367Z,89.15
2018-12-06T05:12:35.376Z,88.63
2018-12-06T05:13:35.342Z,88.42
2018-12-06T05:14:35.382Z,90.60
2018-12-06T05:15:35.368Z,91.02
2018-12-06T05:16:35.350Z,90.60
2018-12-06T05:17:35.329Z,90.39
2018-12-06T05:18:35.289Z,90.60
2018-12-06T05:19:35.275Z,90.39
2018-12-06T05:20:35.264Z,90.39
2018-12-06T05:21:35.252Z,91.33
2018-12-06T05:22:35.253Z,91.12
2018-12-06T05:23:35.229Z,92.16
2018-12-06T05:24:35.219Z,91.43
2018-12-06T05:25:35.236Z,90.91
2018-12-06T05:26:35.197Z,91.43
2018-12-06T05:27:35.259Z,91.12
2018-12-06T05:28:35.177Z,90.50
2018-12-06T05:29:35.163Z,89.56
2018-12-06T05:30:35.156Z,89.46
2018-12-06T05:31:35.163Z,89.36
2018-12-06T05:32:35.144Z,88.28
2018-12-06T05:33:35.116Z,88.69
2018-12-06T05:34:35.105Z,88.18
2018-12-06T05:35:35.099Z,86.93
2018-12-06T05:36:35.082Z,88.18
2018-12-06T05:37:35.087Z,88.34
2018-12-06T05:38:35.140Z,88.13
2018-12-06T05:39:35.059Z,88.18
2018-12-06T05:40:35.033Z,88.18
2018-12-06T05:41:35.030Z,88.45
2018-12-06T05:42:35.014Z,88.34
2018-12-06T05:43:35.027Z,88.18
2018-12-06T05:44:34.991Z,87.72
2018-12-06T05:45:34.980Z,88.03
2018-12-06T05:46:34.968Z,88.45
2018-12-06T05:47:34.959Z,88.18
2018-12-06T05:48:34.958Z,86.58
2018-12-06T05:49:34.934Z,86.37
2018-12-06T05:50:34.922Z,87.93
2018-12-06T05:51:34.913Z,87.78
2018-12-06T05:52:34.900Z,88.34
2018-12-06T05:53:34.908Z,88.30
2018-12-06T05:54:34.873Z,88.40
2018-12-06T05:55:34.870Z,87.88
2018-12-06T05:56:34.855Z,87.68
2018-12-06T05:57:34.859Z,87.88
2018-12-06T05:58:34.859Z,88.55
2018-12-06T05:59:34.829Z,88.30
2018-12-06T06:00:34.811Z,87.78
2018-12-06T06:01:34.802Z,88.40
2018-12-06T06:02:34.787Z,88.71
2018-12-06T06:03:34.790Z,88.09
2018-12-06T06:04:34.771Z,88.40
2018-12-06T06:05:34.753Z,89.34
2018-12-06T06:06:34.743Z,89.44
2018-12-06T06:07:34.727Z,89.96
2018-12-06T06:08:34.734Z,89.89
2018-12-06T06:09:34.703Z,90.20
2018-12-06T06:10:34.694Z,90.41
2018-12-06T06:11:34.682Z,90.31
2018-12-06T06:12:34.669Z,90.93
2018-12-06T06:13:34.674Z,90.10
2018-12-06T06:14:34.647Z,90.52
2018-12-06T06:15:34.635Z,89.86
2018-12-06T06:16:34.624Z,90.26
2018-12-06T06:17:34.612Z,90.16
2018-12-06T06:18:34.618Z,90.78
2018-12-06T06:19:34.589Z,90.16
2018-12-06T06:20:34.578Z,90.26
2018-12-06T06:21:34.644Z,90.47
2018-12-06T06:22:34.555Z,90.16
2018-12-06T06:23:34.562Z,90.23
2018-12-06T06:24:34.533Z,90.37
2018-12-06T06:25:34.522Z,90.58
2018-12-06T06:26:34.513Z,90.12
2018-12-06T06:27:34.500Z,90.12
2018-12-06T06:28:34.505Z,90.12
2018-12-06T06:29:34.479Z,90.02
2018-12-06T06:30:34.465Z,90.26
2018-12-06T06:31:34.454Z,90.53
2018-12-06T06:32:34.443Z,90.12
2018-12-06T06:33:34.444Z,89.29
2018-12-06T06:34:34.422Z,89.50
2018-12-06T06:35:34.414Z,89.40
2018-12-06T06:36:34.397Z,89.81
2018-12-06T06:37:34.385Z,88.88
2018-12-06T06:38:34.387Z,88.98
2018-12-06T06:39:34.364Z,89.19
2018-12-06T06:40:34.353Z,89.81
2018-12-06T06:41:34.362Z,89.71
2018-12-06T06:42:34.330Z,89.71
2018-12-06T06:43:34.329Z,90.74
2018-12-06T06:44:34.306Z,90.44
2018-12-06T06:45:34.300Z,90.44
2018-12-06T06:46:34.284Z,90.23
2018-12-06T06:47:34.273Z,90.23
2018-12-06T06:48:34.285Z,89.92
2018-12-06T06:49:34.249Z,90.95
2018-12-06T06:50:34.235Z,90.53
2018-12-06T06:51:34.228Z,91.05
2018-12-06T06:52:34.216Z,91.09
2018-12-06T06:53:34.222Z,91.99
2018-12-06T06:54:34.185Z,91.93
2018-12-06T06:55:34.182Z,92.13
2018-12-06T06:56:34.175Z,92.24
2018-12-06T06:57:34.162Z,92.24
2018-12-06T06:58:34.164Z,92.65
2018-12-06T06:59:34.137Z,93.27
2018-12-06T07:00:34.129Z,93.12
2018-12-06T07:01:34.115Z,92.81
2018-12-06T07:02:34.108Z,92.05
2018-12-06T07:03:34.117Z,92.15
2018-12-06T07:04:34.080Z,92.15
2018-12-06T07:05:34.069Z,91.63
2018-12-06T07:06:34.058Z,91.84
2018-12-06T07:07:34.048Z,91.94
2018-12-06T07:08:34.047Z,92.05
2018-12-06T07:09:34.023Z,92.15
2018-12-06T07:10:34.014Z,92.11
2018-12-06T07:11:34.002Z,92.25
2018-12-06T07:12:33.990Z,92.11
2018-12-06T07:13:33.998Z,91.59
2018-12-06T07:14:33.975Z,90.97
2018-12-06T07:15:33.962Z,91.03
2018-12-06T07:16:33.945Z,90.20
2018-12-06T07:17:33.933Z,89.28
2018-12-06T07:18:33.935Z,88.86
2018-12-06T07:19:33.909Z,88.20
2018-12-06T07:20:33.899Z,88.10
2018-12-06T07:21:33.880Z,87.89
2018-12-06T07:22:33.883Z,87.85
2018-12-06T07:23:33.879Z,87.65
2018-12-06T07:24:33.850Z,87.02
2018-12-06T07:25:33.839Z,86.51
2018-12-06T07:26:33.846Z,87.65
2018-12-06T07:27:33.818Z,86.30
2018-12-06T07:28:33.822Z,86.51
2018-12-06T07:29:33.795Z,85.89
2018-12-06T07:30:33.783Z,85.89
2018-12-06T07:31:33.774Z,85.68
2018-12-06T07:32:33.761Z,86.16
2018-12-06T07:33:33.761Z,86.71
2018-12-06T07:34:33.739Z,86.10
2018-12-06T07:35:33.726Z,86.20
2018-12-06T07:36:33.720Z,87.65
2018-12-06T07:37:33.707Z,87.74
2018-12-06T07:38:33.708Z,87.85
2018-12-06T07:39:33.676Z,87.85
2018-12-06T07:40:33.671Z,88.10
2018-12-06T07:41:33.658Z,88.31
2018-12-06T07:42:33.647Z,88.41
2018-12-06T07:43:33.635Z,88.20
2018-12-06T07:44:33.639Z,88.24
2018-12-06T07:45:33.613Z,88.55
2018-12-06T07:46:33.600Z,88.96
2018-12-06T07:47:33.589Z,89.38
2018-12-06T07:48:33.582Z,88.86
2018-12-06T07:49:33.595Z,89.17
2018-12-06T07:50:33.556Z,89.17
2018-12-06T07:51:33.548Z,89.42
2018-12-06T07:52:33.536Z,88.90
2018-12-06T07:53:33.523Z,89.22
2018-12-06T07:54:33.528Z,89.42
2018-12-06T07:55:33.505Z,89.32
2018-12-06T07:56:33.488Z,88.90
2018-12-06T07:57:33.478Z,88.90
2018-12-06T07:58:33.464Z,89.01
2018-12-06T07:59:33.465Z,89.73
2018-12-06T08:00:33.443Z,89.62
2018-12-06T08:01:33.431Z,89.42
2018-12-06T08:02:33.420Z,89.22
2018-12-06T08:03:33.410Z,89.01
2018-12-06T08:04:33.412Z,88.65
2018-12-06T08:05:33.390Z,88.55
2018-12-06T08:06:33.375Z,88.70
2018-12-06T08:07:33.363Z,89.32
2018-12-06T08:08:33.352Z,89.42
2018-12-06T08:09:33.356Z,89.28
2018-12-06T08:10:33.362Z,90.04
2018-12-06T08:11:35.302Z,90.04
2018-12-06T08:12:33.312Z,90.31
2018-12-06T08:13:33.297Z,88.76
2018-12-06T08:14:33.291Z,88.71
2018-12-06T08:15:33.273Z,88.41
2018-12-06T08:16:33.261Z,88.20
2018-12-06T08:17:33.250Z,88.61
2018-12-06T08:18:33.239Z,88.61
2018-12-06T08:19:33.244Z,89.69
2018-12-06T08:20:33.224Z,90.41
2018-12-06T08:23:33.633Z,90.97
2018-12-06T08:23:45.507Z,90.87
2018-12-06T08:24:44.717Z,91.80
2018-12-06T08:25:43.675Z,92.11
2018-12-06T08:27:53.595Z,91.96
2018-12-06T08:28:53.575Z,92.17
2018-12-06T08:29:53.574Z,92.07
2018-12-06T08:30:53.555Z,91.40
2018-12-06T08:31:53.542Z,91.30
2018-12-06T08:32:53.534Z,91.20
2018-12-06T08:33:53.517Z,91.20
2018-12-06T08:34:53.523Z,90.89
2018-12-06T08:35:53.494Z,90.64
2018-12-06T08:36:53.485Z,90.53
2018-12-06T08:37:53.472Z,90.02
2018-12-06T08:38:53.462Z,89.98
2018-12-06T08:39:53.466Z,90.19
2018-12-06T08:40:53.440Z,90.19
2018-12-06T08:41:53.426Z,89.98
2018-12-06T08:42:53.417Z,90.28
2018-12-06T08:43:53.404Z,90.19
2018-12-06T08:44:53.409Z,90.70
2018-12-06T08:45:53.381Z,90.39
2018-12-06T08:46:53.374Z,90.59
2018-12-06T08:47:53.359Z,89.83
2018-12-06T08:48:53.349Z,89.11
2018-12-06T08:49:53.352Z,87.56
2018-12-06T08:50:53.325Z,87.52
2018-12-06T08:51:53.313Z,87.73
2018-12-06T08:52:53.301Z,87.69
2018-12-06T08:53:53.291Z,87.17
2018-12-06T08:54:53.303Z,87.07
2018-12-06T08:55:53.268Z,87.17
2018-12-06T08:56:53.257Z,87.27
2018-12-06T08:57:53.248Z,87.13
2018-12-06T08:58:53.235Z,86.82
2018-12-06T08:59:53.240Z,86.41
2018-12-06T09:00:53.217Z,86.61
2018-12-06T09:01:53.199Z,86.72
2018-12-06T09:02:53.189Z,87.44
2018-12-06T09:03:53.169Z,87.24
2018-12-06T09:04:53.179Z,87.34
2018-12-06T09:05:53.168Z,86.21
2018-12-06T09:06:53.150Z,87.03
2018-12-06T09:07:53.142Z,87.54
2018-12-06T09:08:53.121Z,87.34
2018-12-06T09:09:53.122Z,87.44
2018-12-06T09:10:53.101Z,86.82
2018-12-06T09:11:53.088Z,86.37
2018-12-06T09:12:53.065Z,86.58
2018-12-06T09:13:53.067Z,87.40
2018-12-06T09:14:53.073Z,86.47
2018-12-06T09:15:53.044Z,86.88
2018-12-06T09:16:53.032Z,87.09
2018-12-06T09:17:53.020Z,86.99
2018-12-06T09:18:55.062Z,86.88
2018-12-06T09:19:53.011Z,87.09
2018-12-06T09:20:52.987Z,87.60
2018-12-06T09:21:52.975Z,87.09
2018-12-06T09:22:52.963Z,86.99
2018-12-06T09:23:52.952Z,87.81
2018-12-06T09:24:52.954Z,87.40
2018-12-06T09:25:52.928Z,87.92
2018-12-06T09:26:58.714Z,87.51
2018-12-06T09:27:53.905Z,87.60
2018-12-06T09:28:52.894Z,88.02
2018-12-06T09:29:52.898Z,87.81
2018-12-06T09:30:52.868Z,87.92
2018-12-06T09:31:52.906Z,87.60
2018-12-06T09:32:52.851Z,87.92
2018-12-06T09:33:52.847Z,87.92
2018-12-06T09:34:52.845Z,87.15
2018-12-06T09:35:52.815Z,87.46
2018-12-06T09:36:52.804Z,87.77
2018-12-06T09:37:52.794Z,87.57
2018-12-06T09:38:52.777Z,87.46
2018-12-06T09:39:52.786Z,87.84
2018-12-06T09:40:52.755Z,87.05
2018-12-06T09:41:52.744Z,87.46
2018-12-06T09:42:52.736Z,86.85
2018-12-06T09:43:52.726Z,87.32
2018-12-06T09:44:52.728Z,87.12
2018-12-06T09:45:52.698Z,86.29
2018-12-06T09:46:52.691Z,86.70
2018-12-06T09:47:52.681Z,86.91
2018-12-06T09:48:52.664Z,87.22
2018-12-06T09:49:52.670Z,86.29
2018-12-06T09:50:52.655Z,86.87
2018-12-06T09:51:52.633Z,86.35
2018-12-06T09:52:52.620Z,86.56
2018-12-06T09:53:52.607Z,87.07
2018-12-06T09:54:52.613Z,86.05
2018-12-06T09:55:52.585Z,85.84
2018-12-06T09:56:52.726Z,85.49
2018-12-06T09:57:52.569Z,85.90
2018-12-06T09:58:52.556Z,85.90
2018-12-06T09:59:52.558Z,85.39
2018-12-06T10:00:52.528Z,85.39
2018-12-06T10:01:52.518Z,83.64
2018-12-06T10:02:52.509Z,83.95
2018-12-06T10:03:52.496Z,83.64
2018-12-06T10:04:52.496Z,83.33
2018-12-06T10:05:54.543Z,83.44
2018-12-06T10:06:52.463Z,83.85
2018-12-06T10:07:52.546Z,83.13
2018-12-06T10:08:52.446Z,83.64
2018-12-06T10:09:52.445Z,83.44
2018-12-06T10:10:52.419Z,83.95
2018-12-06T10:11:52.407Z,83.95
2018-12-06T10:12:52.395Z,84.77
2018-12-06T10:13:54.394Z,83.54
2018-12-06T10:14:52.387Z,83.44
2018-12-06T10:15:52.363Z,83.58
2018-12-06T10:16:52.348Z,84.40
2018-12-06T10:17:52.340Z,83.85
2018-12-06T10:18:52.545Z,83.95
2018-12-06T10:19:52.335Z,84.71
2018-12-06T10:20:52.303Z,84.23
2018-12-06T10:21:52.292Z,85.26
2018-12-06T10:22:52.282Z,85.06
2018-12-06T10:23:52.270Z,84.85
2018-12-06T10:24:52.274Z,85.47
2018-12-06T10:25:52.247Z,84.99
2018-12-06T10:26:52.237Z,85.10
2018-12-06T10:27:52.224Z,84.99
2018-12-06T10:28:52.214Z,84.89
2018-12-06T10:29:52.234Z,84.79
2018-12-06T10:30:52.190Z,85.30
2018-12-06T10:31:52.183Z,87.19
2018-12-06T10:32:52.168Z,87.09
2018-12-06T10:33:52.156Z,87.54
2018-12-06T10:34:53.516Z,88.06
2018-12-06T10:35:52.147Z,88.17
2018-12-06T10:36:52.124Z,88.47
2018-12-06T10:37:52.112Z,88.78
2018-12-06T10:38:54.169Z,88.78
2018-12-06T10:39:52.086Z,88.89
2018-12-06T10:40:52.093Z,90.01
2018-12-06T10:41:52.066Z,88.57
2018-12-06T10:42:53.060Z,89.40
2018-12-06T10:43:52.048Z,89.71
2018-12-06T10:44:52.032Z,88.68
2018-12-06T10:45:52.037Z,89.29
2018-12-06T10:46:54.228Z,89.81
2018-12-06T10:47:52.000Z,89.71
2018-12-06T10:48:51.988Z,89.87
2018-12-06T10:49:51.977Z,89.81
2018-12-06T10:50:51.982Z,89.71
2018-12-06T10:51:51.950Z,90.01
2018-12-06T10:52:51.947Z,89.61
2018-12-06T10:53:51.934Z,89.81
2018-12-06T10:54:51.920Z,89.71
2018-12-06T10:55:51.942Z,90.53
2018-12-06T10:56:51.911Z,89.61
2018-12-06T10:57:51.897Z,90.12
2018-12-06T10:58:51.882Z,88.89
2018-12-06T10:59:51.867Z,88.99
2018-12-06T11:00:57.205Z,89.40
2018-12-06T11:01:52.852Z,89.09
2018-12-06T11:02:51.835Z,88.99
2018-12-06T11:03:51.822Z,89.13
2018-12-06T11:04:51.814Z,89.13
2018-12-06T11:05:51.827Z,89.13
2018-12-06T11:06:51.804Z,89.13
2018-12-06T11:07:51.781Z,89.29
2018-12-06T11:08:51.772Z,88.72
2018-12-06T11:09:51.763Z,88.92
2018-12-06T11:10:51.792Z,89.23
2018-12-06T11:11:51.743Z,88.89
2018-12-06T11:12:51.721Z,88.78
2018-12-06T11:13:51.715Z,88.82
2018-12-06T11:14:51.702Z,88.99
2018-12-06T11:15:51.736Z,88.57
2018-12-06T11:16:51.679Z,89.09
2018-12-06T11:17:51.703Z,88.57
2018-12-06T11:18:51.664Z,88.99
2018-12-06T11:19:51.645Z,88.89
2018-12-06T11:20:51.666Z,88.99
2018-12-06T11:21:51.626Z,88.57
2018-12-06T11:22:51.617Z,88.68
2018-12-06T11:23:51.602Z,88.47
2018-12-06T11:24:51.593Z,88.33
2018-12-06T11:25:51.597Z,88.06
2018-12-06T11:26:51.566Z,88.37
2018-12-06T11:27:51.556Z,88.26
2018-12-06T11:28:51.544Z,88.02
2018-12-06T11:29:51.553Z,88.12
2018-12-06T11:30:51.552Z,88.12
2018-12-06T11:31:51.509Z,88.06
2018-12-06T11:32:51.516Z,88.02
2018-12-06T11:33:51.493Z,87.92
2018-12-06T11:34:51.475Z,88.12
2018-12-06T11:35:51.480Z,87.92
2018-12-06T11:36:51.459Z,87.81
2018-12-06T11:37:51.446Z,88.02
2018-12-06T11:38:51.437Z,88.43
2018-12-06T11:39:51.423Z,87.71
2018-12-06T11:40:51.444Z,87.92
2018-12-06T11:41:51.411Z,87.67
2018-12-06T11:42:51.393Z,87.15
2018-12-06T11:43:51.387Z,86.85
2018-12-06T11:44:51.381Z,87.57
2018-12-06T11:45:51.379Z,87.57
2018-12-06T11:46:51.345Z,87.36
2018-12-06T11:47:51.335Z,87.46
2018-12-06T11:48:51.334Z,87.01
2018-12-06T11:49:51.321Z,87.15
2018-12-06T11:50:51.321Z,86.91
2018-12-06T11:51:51.301Z,86.54
2018-12-06T11:52:51.282Z,87.36
2018-12-06T11:53:51.265Z,86.99
2018-12-06T11:54:51.259Z,86.99
2018-12-06T11:55:51.279Z,87.40
2018-12-06T11:56:51.259Z,86.79
2018-12-06T11:57:51.225Z,87.30
2018-12-06T11:58:51.216Z,87.19
2018-12-06T11:59:51.203Z,87.40
2018-12-06T12:00:51.203Z,87.40
2018-12-06T12:01:51.197Z,87.40
2018-12-06T12:02:51.173Z,87.15
2018-12-06T12:03:51.183Z,87.09
2018-12-06T12:04:51.148Z,86.33
2018-12-06T12:05:58.302Z,86.85
2018-12-06T12:06:52.118Z,85.82
2018-12-06T12:07:51.108Z,87.26
2018-12-06T12:08:51.102Z,86.54
2018-12-06T12:09:51.112Z,86.74
2018-12-06T12:10:51.102Z,87.46
2018-12-06T12:11:51.085Z,86.95
2018-12-06T12:12:51.055Z,86.43
2018-12-06T12:13:51.039Z,86.85
2018-12-06T12:14:51.078Z,87.19
2018-12-06T12:15:51.044Z,86.85
2018-12-06T12:16:51.007Z,86.99
2018-12-06T12:17:50.998Z,87.30
2018-12-06T12:18:50.990Z,87.36
2018-12-06T12:19:50.977Z,87.15
2018-12-06T12:20:50.981Z,87.51
2018-12-06T12:21:50.950Z,86.79
2018-12-06T12:22:50.943Z,87.09
2018-12-06T12:23:50.961Z,87.40
2018-12-06T12:24:50.924Z,87.09
2018-12-06T12:25:50.936Z,87.51
2018-12-06T12:26:50.895Z,87.81
2018-12-06T12:27:50.885Z,88.43
2018-12-06T12:28:50.877Z,87.40
2018-12-06T12:29:50.862Z,87.40
2018-12-06T12:30:50.891Z,87.40
2018-12-06T12:31:50.835Z,87.67
2018-12-06T12:32:50.842Z,88.29
2018-12-06T12:33:50.822Z,87.46
2018-12-06T12:34:50.819Z,87.57
2018-12-06T12:35:50.834Z,87.36
2018-12-06T12:36:50.791Z,87.87
2018-12-06T12:37:50.769Z,87.57
2018-12-06T12:38:50.768Z,87.15
2018-12-06T12:39:50.757Z,87.67
2018-12-06T12:40:50.741Z,87.67
2018-12-06T12:41:50.750Z,87.36
2018-12-06T12:42:50.723Z,87.36
2018-12-06T12:43:50.709Z,87.26
2018-12-06T12:44:50.705Z,87.26
2018-12-06T12:45:50.691Z,86.95
2018-12-06T12:46:50.742Z,87.26
2018-12-06T12:47:50.661Z,86.91
2018-12-06T12:48:50.653Z,86.80
2018-12-06T12:49:50.640Z,86.43
2018-12-06T12:50:50.633Z,86.33
2018-12-06T12:51:50.644Z,86.50
2018-12-06T12:52:50.605Z,87.63
2018-12-06T12:53:50.602Z,86.60
2018-12-06T12:54:50.583Z,86.43
2018-12-06T12:55:50.572Z,86.95
2018-12-06T12:56:50.587Z,87.32
2018-12-06T12:57:50.559Z,86.70
2018-12-06T12:58:50.542Z,86.95
2018-12-06T12:59:50.533Z,87.01
2018-12-06T13:00:50.518Z,86.74
2018-12-06T13:01:50.533Z,87.77
2018-12-06T13:02:50.493Z,86.33
2018-12-06T13:03:50.488Z,86.29
2018-12-06T13:04:50.476Z,86.43
2018-12-06T13:05:50.459Z,87.12
2018-12-06T13:06:50.460Z,87.01
2018-12-06T13:07:50.433Z,86.91
2018-12-06T13:08:50.456Z,86.19
2018-12-06T13:09:51.996Z,85.88
2018-12-06T13:10:50.707Z,86.08
2018-12-06T13:11:51.376Z,86.95
2018-12-06T13:12:51.965Z,85.78
2018-12-06T13:13:50.369Z,85.68
2018-12-06T13:14:50.359Z,86.08
2018-12-06T13:15:50.346Z,85.92
2018-12-06T13:16:50.356Z,85.98
2018-12-06T13:17:50.325Z,86.02
2018-12-06T13:18:50.313Z,86.40
2018-12-06T13:19:50.303Z,86.19
2018-12-06T13:20:50.295Z,86.29
2018-12-06T13:21:50.328Z,85.57
2018-12-06T13:22:50.270Z,85.36
2018-12-06T13:23:50.258Z,85.26
2018-12-06T13:24:50.253Z,85.16
2018-12-06T13:25:50.238Z,85.36
2018-12-06T13:26:50.318Z,85.88
2018-12-06T13:27:50.216Z,85.47
2018-12-06T13:28:50.200Z,85.98
2018-12-06T13:29:50.189Z,86.40
2018-12-06T13:30:50.179Z,86.91
2018-12-06T13:31:50.177Z,85.98
2018-12-06T13:32:50.155Z,85.47
2018-12-06T13:33:50.144Z,85.47
2018-12-06T13:34:50.191Z,85.36
2018-12-06T13:35:50.123Z,85.57
2018-12-06T13:36:50.129Z,85.16
2018-12-06T13:37:50.100Z,85.22
2018-12-06T13:38:50.087Z,85.68
2018-12-06T13:39:50.080Z,85.88
2018-12-06T13:40:50.100Z,85.47
2018-12-06T13:41:50.069Z,85.36
2018-12-06T13:42:50.041Z,85.57
2018-12-06T13:43:50.030Z,85.47
2018-12-06T13:44:50.020Z,85.16
2018-12-06T13:45:50.007Z,85.57
2018-12-06T13:46:50.015Z,85.78
2018-12-06T13:47:49.984Z,85.68
2018-12-06T13:48:49.974Z,85.68
2018-12-06T13:49:49.958Z,85.36
2018-12-06T13:50:49.952Z,85.16
2018-12-06T13:51:49.955Z,85.26
2018-12-06T13:52:49.928Z,85.47
2018-12-06T13:53:49.924Z,85.98
2018-12-06T13:54:49.906Z,85.47
2018-12-06T13:55:49.898Z,85.16
2018-12-06T13:56:53.760Z,85.63
2018-12-06T13:57:49.878Z,85.84
2018-12-06T13:58:49.864Z,85.74
2018-12-06T13:59:50.344Z,85.63
2018-12-06T14:00:50.150Z,85.74
2018-12-06T14:01:49.845Z,85.84
2018-12-06T14:02:49.853Z,86.19
2018-12-06T14:03:49.872Z,85.68
2018-12-06T14:04:49.801Z,85.57
2018-12-06T14:05:49.785Z,85.94
2018-12-06T14:06:49.790Z,85.63
2018-12-06T14:07:49.764Z,85.26
2018-12-06T14:08:49.751Z,85.78
2018-12-06T14:09:49.732Z,85.16
2018-12-06T14:10:49.732Z,85.78
2018-12-06T14:11:49.733Z,85.74
2018-12-06T14:12:49.706Z,85.94
2018-12-06T14:13:49.702Z,85.78
2018-12-06T14:14:50.134Z,86.40
2018-12-06T14:15:49.672Z,86.08
2018-12-06T14:16:49.682Z,87.07
2018-12-06T14:17:51.624Z,86.91
2018-12-06T14:18:50.667Z,87.01
2018-12-06T14:19:49.692Z,87.12
2018-12-06T14:20:49.648Z,87.22
2018-12-06T14:21:49.621Z,86.50
2018-12-06T14:22:49.593Z,87.32
2018-12-06T14:23:49.582Z,87.52
2018-12-06T14:24:49.572Z,86.70
2018-12-06T14:25:49.561Z,87.12
2018-12-06T14:26:49.566Z,87.12
2018-12-06T14:27:49.541Z,87.42
2018-12-06T14:28:49.527Z,86.91
2018-12-06T14:29:49.514Z,87.12
2018-12-06T14:30:49.516Z,87.84
2018-12-06T14:31:49.507Z,87.32
2018-12-06T14:32:49.482Z,86.87
2018-12-06T14:33:49.472Z,86.91
2018-12-06T14:34:49.458Z,87.32
2018-12-06T14:35:49.456Z,87.84
2018-12-06T14:37:01.740Z,87.73
2018-12-06T14:37:50.431Z,87.67
2018-12-06T14:38:49.413Z,87.73
2018-12-06T14:39:49.403Z,87.73
2018-12-06T14:40:49.394Z,87.77
2018-12-06T14:41:49.423Z,87.63
2018-12-06T14:42:49.371Z,87.73
2018-12-06T14:43:49.365Z,87.42
2018-12-06T14:44:49.350Z,87.36
2018-12-06T14:45:49.340Z,87.94
2018-12-06T14:46:49.326Z,87.84
2018-12-06T14:47:49.331Z,87.73
2018-12-06T14:48:49.310Z,88.04
2018-12-06T14:49:49.296Z,87.94
2018-12-06T14:50:50.820Z,88.14
2018-12-06T14:51:49.272Z,88.04
2018-12-06T14:52:49.271Z,88.24
2018-12-06T14:53:49.247Z,88.45
2018-12-06T14:54:49.236Z,88.49
2018-12-06T14:55:49.235Z,89.01
2018-12-06T14:56:49.213Z,88.80
2018-12-06T14:57:49.216Z,89.31
2018-12-06T14:58:49.191Z,89.28
2018-12-06T14:59:49.180Z,88.76
2018-12-06T15:00:49.172Z,89.31
2018-12-06T15:01:49.160Z,90.24
2018-12-06T15:02:49.161Z,90.20
2018-12-06T15:03:49.130Z,89.62
2018-12-06T15:04:49.124Z,89.89
2018-12-06T15:05:49.116Z,89.89
2018-12-06T15:06:49.104Z,89.83
2018-12-06T15:07:49.110Z,89.62
2018-12-06T15:08:49.078Z,89.83
2018-12-06T15:09:49.075Z,89.73
2018-12-06T15:10:49.058Z,90.66
2018-12-06T15:11:49.033Z,90.34
2018-12-06T15:12:49.050Z,90.24
2018-12-06T15:13:49.024Z,90.34
2018-12-06T15:14:49.012Z,90.41
2018-12-06T15:15:49.000Z,90.14
2018-12-06T15:16:48.990Z,90.03
2018-12-06T15:17:48.994Z,90.61
2018-12-06T15:18:48.970Z,90.34
2018-12-06T15:19:48.954Z,89.58
2018-12-06T15:20:48.942Z,90.61
2018-12-06T15:21:48.931Z,90.34
2018-12-06T15:22:48.946Z,90.45
2018-12-06T15:23:48.909Z,90.14
2018-12-06T15:24:48.902Z,90.14
2018-12-06T15:25:48.897Z,90.03
2018-12-06T15:26:48.877Z,90.45
2018-12-06T15:27:48.880Z,90.14
2018-12-06T15:28:48.858Z,89.94
2018-12-06T15:29:48.844Z,90.55
2018-12-06T15:30:48.820Z,90.55
2018-12-06T15:31:49.462Z,90.45
2018-12-06T15:32:48.838Z,90.34
2018-12-06T15:33:48.800Z,90.66
2018-12-06T15:34:48.794Z,90.75
2018-12-06T15:35:48.778Z,91.38
2018-12-06T15:36:48.771Z,91.17
2018-12-06T15:37:48.768Z,90.96
2018-12-06T15:38:48.745Z,91.58
2018-12-06T15:39:48.749Z,91.68
2018-12-06T15:40:48.723Z,91.68
2018-12-06T15:41:48.740Z,91.17
2018-12-06T15:42:48.716Z,91.27
2018-12-06T15:43:48.688Z,91.17
2018-12-06T15:44:49.033Z,91.27
2018-12-06T15:45:50.445Z,91.58
2018-12-06T15:46:48.656Z,91.06
2018-12-06T15:47:48.658Z,90.66
2018-12-06T15:48:48.632Z,90.72
2018-12-06T15:49:48.620Z,90.55
2018-12-06T15:50:48.613Z,90.55
2018-12-06T15:51:48.596Z,90.45
2018-12-06T15:52:48.599Z,90.45
2018-12-06T15:53:48.576Z,90.45
2018-12-06T15:54:49.283Z,90.55
2018-12-06T15:55:48.539Z,90.55
2018-12-06T15:56:48.541Z,90.45
2018-12-06T15:57:50.619Z,90.45
2018-12-06T15:58:49.050Z,90.34
2018-12-06T15:59:48.506Z,90.45
2018-12-06T16:00:48.495Z,90.66
2018-12-06T16:01:48.483Z,89.94
2018-12-06T16:02:48.489Z,89.94
2018-12-06T16:03:48.462Z,90.14
2018-12-06T16:04:48.453Z,90.09
2018-12-06T16:05:48.440Z,90.34
2018-12-06T16:06:48.428Z,90.03
2018-12-06T16:07:48.433Z,89.94
2018-12-06T16:08:48.404Z,90.14
2018-12-06T16:09:48.393Z,90.09
2018-12-06T16:10:48.387Z,90.55
2018-12-06T16:11:48.373Z,90.45
2018-12-06T16:12:48.375Z,90.03
2018-12-06T16:13:48.352Z,90.61
2018-12-06T16:14:48.346Z,90.24
2018-12-06T16:15:48.330Z,90.45
2018-12-06T16:16:48.318Z,90.34
2018-12-06T16:17:48.318Z,90.45
2018-12-06T16:18:48.295Z,90.00
2018-12-06T16:19:48.284Z,90.20
2018-12-06T16:20:48.272Z,90.30
2018-12-06T16:21:48.261Z,90.51
2018-12-06T16:22:48.264Z,90.51
2018-12-06T16:23:48.238Z,90.20
2018-12-06T16:24:48.230Z,90.24
2018-12-06T16:25:48.215Z,90.20
2018-12-06T16:26:48.205Z,90.51
2018-12-06T16:27:48.211Z,90.09
2018-12-06T16:28:48.183Z,90.41
2018-12-06T16:29:51.497Z,90.81
2018-12-06T16:30:48.159Z,90.61
2018-12-06T16:31:48.152Z,90.45
2018-12-06T16:32:48.159Z,91.17
2018-12-06T16:33:48.127Z,90.72
2018-12-06T16:34:48.115Z,91.33
2018-12-06T16:35:48.183Z,90.72
2018-12-06T16:36:48.094Z,90.61
2018-12-06T16:37:48.093Z,91.53
2018-12-06T16:38:48.071Z,91.38
2018-12-06T16:39:48.058Z,90.72
2018-12-06T16:40:48.563Z,91.44
2018-12-06T16:41:48.037Z,91.58
2018-12-06T16:42:48.033Z,91.23
2018-12-06T16:43:48.033Z,91.23
2018-12-06T16:44:49.662Z,91.68
2018-12-06T16:45:49.402Z,91.68
2018-12-06T16:46:48.678Z,91.33
2018-12-06T16:47:48.033Z,91.38
2018-12-06T16:48:47.959Z,91.58
2018-12-06T16:49:50.010Z,91.44
2018-12-06T16:50:47.938Z,91.58
2018-12-06T16:51:49.814Z,91.64
2018-12-06T16:52:48.561Z,91.68
2018-12-06T16:53:48.271Z,91.53
2018-12-06T16:54:47.888Z,91.74
2018-12-06T16:55:51.887Z,91.74
2018-12-06T16:56:47.867Z,91.64
2018-12-06T16:57:47.855Z,91.44
2018-12-06T16:58:47.859Z,91.39
2018-12-06T16:59:47.831Z,91.64
2018-12-06T17:00:47.826Z,91.95
2018-12-06T17:01:47.809Z,91.64
2018-12-06T17:02:47.798Z,91.53
2018-12-06T17:03:49.682Z,91.49
2018-12-06T17:04:49.778Z,92.16
2018-12-06T17:05:49.820Z,91.39
2018-12-06T17:06:47.761Z,91.49
2018-12-06T17:07:47.748Z,92.46
2018-12-06T17:08:47.748Z,92.01
2018-12-06T17:09:51.387Z,91.91
2018-12-06T17:10:47.714Z,91.80
2018-12-06T17:11:47.701Z,91.60
2018-12-06T17:12:47.720Z,92.01
2018-12-06T17:13:47.693Z,91.91
2018-12-06T17:14:47.668Z,92.01
2018-12-06T17:15:47.655Z,91.60
2018-12-06T17:16:47.646Z,91.91
2018-12-06T17:17:47.641Z,91.80
2018-12-06T17:18:47.634Z,92.11
2018-12-06T17:19:47.612Z,92.52
2018-12-06T17:20:47.599Z,91.91
2018-12-06T17:21:47.588Z,92.93
2018-12-06T17:22:47.577Z,92.42
2018-12-06T17:23:47.587Z,92.42
2018-12-06T17:24:47.554Z,93.14
2018-12-06T17:25:47.864Z,92.52
2018-12-06T17:26:47.533Z,92.57
2018-12-06T17:27:47.520Z,93.14
2018-12-06T17:28:47.528Z,92.21
2018-12-06T17:29:48.313Z,92.42
2018-12-06T17:30:47.487Z,92.42
2018-12-06T17:31:47.475Z,92.52
2018-12-06T17:32:47.464Z,92.52
2018-12-06T17:33:47.464Z,92.52
2018-12-06T17:34:47.441Z,92.52
2018-12-06T17:35:47.546Z,92.63
2018-12-06T17:36:47.420Z,92.01
2018-12-06T17:37:49.772Z,92.52
2018-12-06T17:38:48.520Z,93.04
2018-12-06T17:39:47.388Z,93.29
2018-12-06T17:40:47.719Z,93.18
2018-12-06T17:41:47.370Z,93.14
2018-12-06T17:42:47.352Z,93.08
2018-12-06T17:43:47.395Z,92.97
2018-12-06T17:44:49.822Z,92.87
2018-12-06T17:45:47.330Z,93.35
2018-12-06T17:46:47.442Z,93.39
2018-12-06T17:47:49.263Z,93.35
2018-12-06T17:48:47.314Z,92.93
2018-12-06T17:49:47.270Z,93.59
2018-12-06T17:50:47.284Z,93.59
2018-12-06T17:51:47.255Z,93.35
2018-12-06T17:52:47.246Z,93.55
2018-12-06T17:53:52.213Z,93.04
2018-12-06T17:54:48.219Z,93.24